F/V Manathia — FGSL — position and weather

sailwx.info

Track history (hours):
 
Tides and Currents Weather Stations Pressure Air Temp Water Temp Dewpoint Dewpoint Depression Visibility Wind Speed Wind Dir Waves Ship Positions

F/V Manathia

Last reported at 2015-May-13 06:19 UTC. Time now 2015-May-25 13:34 UTC.
Position N 47°33' W 003°51'.
Warning: this ship's position is 12 days out of date.

Length 16 m.

Type: Fishing. MMSI: 228258000.

Date/timePositionNaut miles runAvg speedWind from/ knotsBaromVisibWave heightAir tempDewpointWater temp
2015-May-13 06:19N 47°33' W 003°51'17 1.5
2015-May-12 18:33N 47°42' W 004°13'12 5.4
2015-May-12 16:21N 47°34' W 004°00'3 3.1
2015-May-12 15:25N 47°34' W 003°56'1 0.9
2015-May-12 14:23N 47°35' W 003°57'2 2.8
2015-May-12 13:32N 47°33' W 003°55'4 1.2
2015-May-12 10:28N 47°32' W 003°50'2 0.9
2015-May-12 08:11N 47°34' W 003°52'2 3.2
2015-May-12 07:32N 47°35' W 003°55'2 1.6
2015-May-12 06:33N 47°34' W 003°53'1 1.4
2015-May-12 05:33N 47°32' W 003°52'3 3.3
2015-May-12 04:33N 47°34' W 003°56'7 7.2
2015-May-12 03:33N 47°39' W 004°04'9 8.5
2015-May-12 02:33N 47°44' W 004°14'  
2015-May-05 12:33N 47°48' W 004°17'  
Track history (hours):
 
Tides and Currents Weather Stations Pressure Air Temp Water Temp Dewpoint Dewpoint Depression Visibility Wind Speed Wind Dir Waves Ship Positions

F/V Manathia

Last reported at 2015-May-13 06:19 UTC. Time now 2015-May-25 13:34 UTC.
Position N 47°33' W 003°51'.
Warning: this ship's position is 12 days out of date.

Length 16 m.

Type: Fishing. MMSI: 228258000.

Date/timePositionNaut miles runAvg speedWind from/ knotsBaromVisibWave heightAir tempDewpointWater temp
2015-May-13 06:19N 47°33' W 003°51'17 1.5
2015-May-12 18:33N 47°42' W 004°13'12 5.4
2015-May-12 16:21N 47°34' W 004°00'3 3.1
2015-May-12 15:25N 47°34' W 003°56'1 0.9
2015-May-12 14:23N 47°35' W 003°57'2 2.8
2015-May-12 13:32N 47°33' W 003°55'4 1.2
2015-May-12 10:28N 47°32' W 003°50'2 0.9
2015-May-12 08:11N 47°34' W 003°52'2 3.2
2015-May-12 07:32N 47°35' W 003°55'2 1.6
2015-May-12 06:33N 47°34' W 003°53'1 1.4
2015-May-12 05:33N 47°32' W 003°52'3 3.3
2015-May-12 04:33N 47°34' W 003°56'7 7.2
2015-May-12 03:33N 47°39' W 004°04'9 8.5
2015-May-12 02:33N 47°44' W 004°14'  
2015-May-05 12:33N 47°48' W 004°17'  

Dump ship's entire track history